Overview Statistics Trail Chart Weather Telemetry Raw packets
 

This is the latest recevied weather packets stored in our database for station/object W5MAI. If no packets are shown the sender has not sent any weather packets the latest 10 day(s).

<< 1 2 3 4 5 6 7 >>
Time Temp. Humidity Pressure Rain* Wind** Luminosity Snow
1788625405 30.56° C 68% 1016.9 hPa 0 mm - 392 W/m² -
1788624226 30° C 71% 1017 hPa 0 mm - 520 W/m² -
1788623646 30° C 72% 1017 hPa 0 mm - 749 W/m² -
1788623011 29.44° C 73% 1017.1 hPa 0 mm - 341 W/m² -
1788619424 27.78° C 82% 1016.9 hPa 0 mm - 153 W/m² -
1788618859 27.78° C 82% 1016.9 hPa 0 mm - 199 W/m² -
1788618203 27.22° C 84% 1016.9 hPa 0 mm - 269 W/m² -
1788617634 27.22° C 86% 1016.7 hPa 0 mm - 341 W/m² -
1788617056 26.67° C 88% 1016.7 hPa 0 mm - 176 W/m² -
1788615826 25.56° C 88% 1016.6 hPa 0 mm - 116 W/m² -
1788615227 25.56° C 90% 1016.5 hPa 0 mm - 109 W/m² -
1788614641 25° C 92% 1016.3 hPa 0 mm - 118 W/m² -
1788614078 23.89° C 93% 1016.3 hPa 0 mm - 107 W/m² -
1788612226 22.22° C 93% 1016 hPa 0 mm - 28 W/m² -
1788611646 22.22° C 92% 1015.8 hPa 0 mm - 19 W/m² -
1788611008 22.78° C 92% 1015.9 hPa 0 mm - 9 W/m² -
1788609829 22.78° C 92% 1015.6 hPa 0 mm - 0 W/m² -
1788609258 22.78° C 92% 1015.6 hPa 0 mm - 0 W/m² -
1788608620 22.78° C 91% 1015.6 hPa 0 mm - 0 W/m² -
1788608036 22.78° C 91% 1015.8 hPa 0 mm - 0 W/m² -
1788607405 22.78° C 91% 1015.6 hPa 0 mm - 0 W/m² -
1788606835 22.78° C 91% 1015.6 hPa 0 mm - 0 W/m² -
1788606259 23.33° C 91% 1015.6 hPa 0 mm - 0 W/m² -
1788605621 23.33° C 90% 1015.5 hPa 0 mm - 0 W/m² -
1788605042 23.33° C 90% 1015.3 hPa 0 mm - 0 W/m² -

* Rain latest hour (hover to see other rain measurements)
** Current wind speed in m/s (hover to see current wind gust speed)